sensor_id;sensor_type;location;lat;lon;timestamp;P1;durP1;ratioP1;P2;durP2;ratioP2
76807;SDS011;65758;45.458;11.062;2023-11-19T00:00:08;3.30;;;2.50;;
76807;SDS011;65758;45.458;11.062;2023-11-19T00:02:40;4.40;;;2.90;;
76807;SDS011;65758;45.458;11.062;2023-11-19T00:05:09;3.60;;;2.70;;
76807;SDS011;65758;45.458;11.062;2023-11-19T00:07:39;3.50;;;2.60;;
76807;SDS011;65758;45.458;11.062;2023-11-19T00:10:09;4.40;;;2.80;;
76807;SDS011;65758;45.458;11.062;2023-11-19T00:12:38;5.80;;;3.40;;
76807;SDS011;65758;45.458;11.062;2023-11-19T00:15:06;3.30;;;2.80;;
76807;SDS011;65758;45.458;11.062;2023-11-19T00:17:38;3.60;;;3.00;;
76807;SDS011;65758;45.458;11.062;2023-11-19T00:20:13;4.10;;;2.50;;
76807;SDS011;65758;45.458;11.062;2023-11-19T00:22:41;3.10;;;2.10;;
76807;SDS011;65758;45.458;11.062;2023-11-19T00:25:12;4.40;;;2.60;;
76807;SDS011;65758;45.458;11.062;2023-11-19T00:27:39;3.20;;;2.30;;
76807;SDS011;65758;45.458;11.062;2023-11-19T00:30:06;2.90;;;2.50;;
76807;SDS011;65758;45.458;11.062;2023-11-19T00:32:34;4.50;;;4.00;;
76807;SDS011;65758;45.458;11.062;2023-11-19T00:35:02;3.90;;;2.60;;
76807;SDS011;65758;45.458;11.062;2023-11-19T00:37:29;3.80;;;2.80;;
76807;SDS011;65758;45.458;11.062;2023-11-19T00:39:56;3.00;;;2.70;;
76807;SDS011;65758;45.458;11.062;2023-11-19T00:42:25;3.00;;;2.70;;
76807;SDS011;65758;45.458;11.062;2023-11-19T00:44:52;2.80;;;2.50;;
76807;SDS011;65758;45.458;11.062;2023-11-19T00:47:19;4.20;;;2.60;;
76807;SDS011;65758;45.458;11.062;2023-11-19T00:49:48;2.80;;;2.50;;
76807;SDS011;65758;45.458;11.062;2023-11-19T00:52:16;2.60;;;2.20;;
76807;SDS011;65758;45.458;11.062;2023-11-19T00:54:45;2.80;;;2.40;;
76807;SDS011;65758;45.458;11.062;2023-11-19T00:57:12;3.10;;;2.50;;
76807;SDS011;65758;45.458;11.062;2023-11-19T00:59:41;2.90;;;2.50;;
76807;SDS011;65758;45.458;11.062;2023-11-19T01:02:08;4.10;;;2.80;;
76807;SDS011;65758;45.458;11.062;2023-11-19T01:04:36;4.80;;;2.60;;
76807;SDS011;65758;45.458;11.062;2023-11-19T01:07:04;3.70;;;2.80;;
76807;SDS011;65758;45.458;11.062;2023-11-19T01:09:31;4.10;;;3.00;;
76807;SDS011;65758;45.458;11.062;2023-11-19T01:12:02;3.50;;;2.90;;
76807;SDS011;65758;45.458;11.062;2023-11-19T01:14:29;4.60;;;3.80;;
76807;SDS011;65758;45.458;11.062;2023-11-19T01:16:57;6.20;;;5.20;;
76807;SDS011;65758;45.458;11.062;2023-11-19T01:19:24;8.90;;;6.90;;
76807;SDS011;65758;45.458;11.062;2023-11-19T01:21:51;8.00;;;5.30;;
76807;SDS011;65758;45.458;11.062;2023-11-19T01:24:18;8.30;;;5.80;;
76807;SDS011;65758;45.458;11.062;2023-11-19T01:26:46;7.40;;;4.80;;
76807;SDS011;65758;45.458;11.062;2023-11-19T01:29:13;6.30;;;3.80;;
76807;SDS011;65758;45.458;11.062;2023-11-19T01:31:41;4.40;;;3.70;;
76807;SDS011;65758;45.458;11.062;2023-11-19T01:34:09;5.10;;;4.30;;
76807;SDS011;65758;45.458;11.062;2023-11-19T01:36:38;7.10;;;5.80;;
76807;SDS011;65758;45.458;11.062;2023-11-19T01:39:05;10.30;;;7.50;;
76807;SDS011;65758;45.458;11.062;2023-11-19T01:41:36;9.50;;;7.20;;
76807;SDS011;65758;45.458;11.062;2023-11-19T01:44:05;5.50;;;3.80;;
76807;SDS011;65758;45.458;11.062;2023-11-19T01:46:33;4.70;;;3.30;;
76807;SDS011;65758;45.458;11.062;2023-11-19T01:49:02;5.30;;;3.00;;
76807;SDS011;65758;45.458;11.062;2023-11-19T01:51:29;4.60;;;3.10;;
76807;SDS011;65758;45.458;11.062;2023-11-19T01:53:57;3.10;;;2.80;;
76807;SDS011;65758;45.458;11.062;2023-11-19T01:56:24;4.60;;;3.10;;
76807;SDS011;65758;45.458;11.062;2023-11-19T01:58:53;3.50;;;3.10;;
76807;SDS011;65758;45.458;11.062;2023-11-19T02:01:22;3.20;;;2.90;;
76807;SDS011;65758;45.458;11.062;2023-11-19T02:03:51;3.60;;;2.90;;
76807;SDS011;65758;45.458;11.062;2023-11-19T02:06:19;2.90;;;2.60;;
76807;SDS011;65758;45.458;11.062;2023-11-19T02:08:46;3.60;;;3.30;;
76807;SDS011;65758;45.458;11.062;2023-11-19T02:11:13;5.10;;;3.10;;
76807;SDS011;65758;45.458;11.062;2023-11-19T02:13:39;4.20;;;3.10;;
76807;SDS011;65758;45.458;11.062;2023-11-19T02:16:08;3.90;;;3.00;;
76807;SDS011;65758;45.458;11.062;2023-11-19T02:18:36;3.40;;;3.10;;
76807;SDS011;65758;45.458;11.062;2023-11-19T02:21:03;4.40;;;3.30;;
76807;SDS011;65758;45.458;11.062;2023-11-19T02:23:31;6.80;;;4.70;;
76807;SDS011;65758;45.458;11.062;2023-11-19T02:28:41;7.70;;;6.60;;
76807;SDS011;65758;45.458;11.062;2023-11-19T02:31:10;8.60;;;6.10;;
76807;SDS011;65758;45.458;11.062;2023-11-19T02:33:38;7.40;;;5.30;;
76807;SDS011;65758;45.458;11.062;2023-11-19T02:36:06;8.30;;;6.20;;
76807;SDS011;65758;45.458;11.062;2023-11-19T02:38:34;9.20;;;6.00;;
76807;SDS011;65758;45.458;11.062;2023-11-19T02:41:06;7.90;;;5.90;;
76807;SDS011;65758;45.458;11.062;2023-11-19T02:43:33;7.40;;;5.60;;
76807;SDS011;65758;45.458;11.062;2023-11-19T02:46:01;6.90;;;5.60;;
76807;SDS011;65758;45.458;11.062;2023-11-19T02:48:41;6.90;;;5.50;;
76807;SDS011;65758;45.458;11.062;2023-11-19T02:51:09;8.10;;;5.60;;
76807;SDS011;65758;45.458;11.062;2023-11-19T02:53:37;6.00;;;5.40;;
76807;SDS011;65758;45.458;11.062;2023-11-19T02:56:05;5.60;;;4.80;;
76807;SDS011;65758;45.458;11.062;2023-11-19T02:58:38;7.00;;;5.30;;
76807;SDS011;65758;45.458;11.062;2023-11-19T03:01:05;7.10;;;5.40;;
76807;SDS011;65758;45.458;11.062;2023-11-19T03:03:50;5.30;;;4.50;;
76807;SDS011;65758;45.458;11.062;2023-11-19T03:06:24;7.60;;;5.40;;
76807;SDS011;65758;45.458;11.062;2023-11-19T03:08:52;9.50;;;5.20;;
76807;SDS011;65758;45.458;11.062;2023-11-19T03:11:18;7.10;;;5.70;;
76807;SDS011;65758;45.458;11.062;2023-11-19T03:13:45;8.20;;;5.50;;
76807;SDS011;65758;45.458;11.062;2023-11-19T03:16:13;7.90;;;5.40;;
76807;SDS011;65758;45.458;11.062;2023-11-19T03:18:40;5.60;;;4.60;;
76807;SDS011;65758;45.458;11.062;2023-11-19T03:21:07;7.70;;;4.80;;
76807;SDS011;65758;45.458;11.062;2023-11-19T03:23:36;6.70;;;5.10;;
76807;SDS011;65758;45.458;11.062;2023-11-19T03:26:03;6.50;;;4.10;;
76807;SDS011;65758;45.458;11.062;2023-11-19T03:28:32;6.20;;;4.30;;
76807;SDS011;65758;45.458;11.062;2023-11-19T03:30:59;4.40;;;3.80;;
76807;SDS011;65758;45.458;11.062;2023-11-19T03:33:26;5.10;;;3.80;;
76807;SDS011;65758;45.458;11.062;2023-11-19T03:35:56;4.70;;;3.60;;
76807;SDS011;65758;45.458;11.062;2023-11-19T03:38:23;4.90;;;4.00;;
76807;SDS011;65758;45.458;11.062;2023-11-19T03:40:51;5.60;;;3.90;;
76807;SDS011;65758;45.458;11.062;2023-11-19T03:43:18;6.10;;;4.00;;
76807;SDS011;65758;45.458;11.062;2023-11-19T03:45:48;5.00;;;4.30;;
76807;SDS011;65758;45.458;11.062;2023-11-19T03:48:15;4.10;;;3.70;;
76807;SDS011;65758;45.458;11.062;2023-11-19T03:50:45;5.20;;;3.70;;
76807;SDS011;65758;45.458;11.062;2023-11-19T03:53:12;4.70;;;3.50;;
76807;SDS011;65758;45.458;11.062;2023-11-19T03:55:40;4.20;;;3.40;;
76807;SDS011;65758;45.458;11.062;2023-11-19T03:58:07;4.90;;;3.40;;
76807;SDS011;65758;45.458;11.062;2023-11-19T04:00:34;5.70;;;3.20;;
76807;SDS011;65758;45.458;11.062;2023-11-19T04:03:00;4.50;;;3.70;;
76807;SDS011;65758;45.458;11.062;2023-11-19T04:05:27;5.20;;;4.20;;
76807;SDS011;65758;45.458;11.062;2023-11-19T04:07:54;4.30;;;3.70;;
76807;SDS011;65758;45.458;11.062;2023-11-19T04:10:21;4.80;;;3.30;;
76807;SDS011;65758;45.458;11.062;2023-11-19T04:12:49;4.40;;;3.70;;
76807;SDS011;65758;45.458;11.062;2023-11-19T04:15:16;4.70;;;3.60;;
76807;SDS011;65758;45.458;11.062;2023-11-19T04:17:43;3.90;;;3.50;;
76807;SDS011;65758;45.458;11.062;2023-11-19T04:20:13;4.30;;;3.90;;
76807;SDS011;65758;45.458;11.062;2023-11-19T04:22:41;5.40;;;3.70;;
76807;SDS011;65758;45.458;11.062;2023-11-19T04:25:08;6.20;;;3.80;;
76807;SDS011;65758;45.458;11.062;2023-11-19T04:27:36;4.20;;;3.40;;
76807;SDS011;65758;45.458;11.062;2023-11-19T04:30:03;6.50;;;4.00;;
76807;SDS011;65758;45.458;11.062;2023-11-19T04:32:31;4.40;;;3.80;;
76807;SDS011;65758;45.458;11.062;2023-11-19T04:34:58;5.10;;;4.00;;
76807;SDS011;65758;45.458;11.062;2023-11-19T04:37:25;4.60;;;4.00;;
76807;SDS011;65758;45.458;11.062;2023-11-19T04:39:52;4.60;;;4.10;;
76807;SDS011;65758;45.458;11.062;2023-11-19T04:42:19;7.40;;;4.10;;
76807;SDS011;65758;45.458;11.062;2023-11-19T04:44:46;6.30;;;4.00;;
76807;SDS011;65758;45.458;11.062;2023-11-19T04:47:13;4.40;;;4.00;;
76807;SDS011;65758;45.458;11.062;2023-11-19T04:49:41;6.70;;;4.00;;
76807;SDS011;65758;45.458;11.062;2023-11-19T04:52:11;4.40;;;3.90;;
76807;SDS011;65758;45.458;11.062;2023-11-19T04:54:42;5.40;;;4.00;;
76807;SDS011;65758;45.458;11.062;2023-11-19T04:57:10;5.00;;;4.10;;
76807;SDS011;65758;45.458;11.062;2023-11-19T04:59:38;5.20;;;4.30;;
76807;SDS011;65758;45.458;11.062;2023-11-19T05:02:05;6.20;;;4.40;;
76807;SDS011;65758;45.458;11.062;2023-11-19T05:04:32;5.00;;;4.10;;
76807;SDS011;65758;45.458;11.062;2023-11-19T05:06:59;4.60;;;4.10;;
76807;SDS011;65758;45.458;11.062;2023-11-19T05:09:26;4.40;;;3.90;;
76807;SDS011;65758;45.458;11.062;2023-11-19T05:11:53;4.80;;;3.90;;
76807;SDS011;65758;45.458;11.062;2023-11-19T05:14:20;5.30;;;3.90;;
76807;SDS011;65758;45.458;11.062;2023-11-19T05:16:48;5.10;;;4.10;;
76807;SDS011;65758;45.458;11.062;2023-11-19T05:19:15;5.60;;;4.50;;
76807;SDS011;65758;45.458;11.062;2023-11-19T05:21:42;6.20;;;4.70;;
76807;SDS011;65758;45.458;11.062;2023-11-19T05:24:10;6.20;;;4.50;;
76807;SDS011;65758;45.458;11.062;2023-11-19T05:26:41;6.00;;;4.30;;
76807;SDS011;65758;45.458;11.062;2023-11-19T05:29:07;6.90;;;4.80;;
76807;SDS011;65758;45.458;11.062;2023-11-19T05:31:34;4.80;;;4.00;;
76807;SDS011;65758;45.458;11.062;2023-11-19T05:34:03;4.60;;;4.10;;
76807;SDS011;65758;45.458;11.062;2023-11-19T05:36:31;6.60;;;4.90;;
76807;SDS011;65758;45.458;11.062;2023-11-19T05:38:58;5.60;;;4.90;;
76807;SDS011;65758;45.458;11.062;2023-11-19T05:41:24;8.20;;;4.90;;
76807;SDS011;65758;45.458;11.062;2023-11-19T05:43:51;6.50;;;5.70;;
76807;SDS011;65758;45.458;11.062;2023-11-19T05:46:18;5.30;;;4.60;;
76807;SDS011;65758;45.458;11.062;2023-11-19T05:48:47;5.80;;;4.80;;
76807;SDS011;65758;45.458;11.062;2023-11-19T05:51:14;8.10;;;5.40;;
76807;SDS011;65758;45.458;11.062;2023-11-19T05:53:42;6.00;;;5.30;;
76807;SDS011;65758;45.458;11.062;2023-11-19T05:58:36;5.00;;;4.40;;
76807;SDS011;65758;45.458;11.062;2023-11-19T06:01:04;4.90;;;4.40;;
76807;SDS011;65758;45.458;11.062;2023-11-19T06:03:34;6.00;;;5.10;;
76807;SDS011;65758;45.458;11.062;2023-11-19T06:06:02;6.90;;;5.60;;
76807;SDS011;65758;45.458;11.062;2023-11-19T06:08:29;6.90;;;5.10;;
76807;SDS011;65758;45.458;11.062;2023-11-19T06:10:57;9.00;;;5.60;;
76807;SDS011;65758;45.458;11.062;2023-11-19T06:13:24;6.30;;;5.00;;
76807;SDS011;65758;45.458;11.062;2023-11-19T06:15:52;7.50;;;5.20;;
76807;SDS011;65758;45.458;11.062;2023-11-19T06:18:19;6.10;;;5.00;;
76807;SDS011;65758;45.458;11.062;2023-11-19T06:20:50;6.40;;;5.00;;
76807;SDS011;65758;45.458;11.062;2023-11-19T06:25:43;7.10;;;5.00;;
76807;SDS011;65758;45.458;11.062;2023-11-19T06:28:10;7.60;;;5.20;;
76807;SDS011;65758;45.458;11.062;2023-11-19T06:30:37;6.40;;;4.80;;
76807;SDS011;65758;45.458;11.062;2023-11-19T06:33:04;7.00;;;5.20;;
76807;SDS011;65758;45.458;11.062;2023-11-19T06:35:32;7.90;;;5.90;;
76807;SDS011;65758;45.458;11.062;2023-11-19T06:38:03;8.40;;;5.80;;
76807;SDS011;65758;45.458;11.062;2023-11-19T06:40:33;7.20;;;4.90;;
76807;SDS011;65758;45.458;11.062;2023-11-19T06:43:04;6.60;;;4.70;;
76807;SDS011;65758;45.458;11.062;2023-11-19T06:45:31;7.10;;;5.60;;
76807;SDS011;65758;45.458;11.062;2023-11-19T06:48:00;7.20;;;5.70;;
76807;SDS011;65758;45.458;11.062;2023-11-19T06:50:30;7.80;;;5.70;;
76807;SDS011;65758;45.458;11.062;2023-11-19T06:52:57;7.70;;;5.20;;
76807;SDS011;65758;45.458;11.062;2023-11-19T06:55:24;6.90;;;5.70;;
76807;SDS011;65758;45.458;11.062;2023-11-19T06:57:52;7.10;;;5.40;;
76807;SDS011;65758;45.458;11.062;2023-11-19T07:00:19;8.80;;;5.70;;
76807;SDS011;65758;45.458;11.062;2023-11-19T07:02:46;7.80;;;5.80;;
76807;SDS011;65758;45.458;11.062;2023-11-19T07:05:14;8.70;;;6.10;;
76807;SDS011;65758;45.458;11.062;2023-11-19T07:07:40;10.00;;;6.00;;
76807;SDS011;65758;45.458;11.062;2023-11-19T07:10:07;8.80;;;5.70;;
76807;SDS011;65758;45.458;11.062;2023-11-19T07:12:36;7.80;;;6.20;;
76807;SDS011;65758;45.458;11.062;2023-11-19T07:15:04;10.00;;;5.80;;
76807;SDS011;65758;45.458;11.062;2023-11-19T07:17:32;7.20;;;5.50;;
76807;SDS011;65758;45.458;11.062;2023-11-19T07:19:59;7.30;;;5.40;;
76807;SDS011;65758;45.458;11.062;2023-11-19T07:22:26;10.40;;;7.10;;
76807;SDS011;65758;45.458;11.062;2023-11-19T07:24:56;9.30;;;6.40;;
76807;SDS011;65758;45.458;11.062;2023-11-19T07:27:23;9.60;;;6.70;;
76807;SDS011;65758;45.458;11.062;2023-11-19T07:29:51;9.70;;;6.90;;
76807;SDS011;65758;45.458;11.062;2023-11-19T07:32:18;9.80;;;7.30;;
76807;SDS011;65758;45.458;11.062;2023-11-19T07:34:45;18.30;;;12.30;;
76807;SDS011;65758;45.458;11.062;2023-11-19T07:37:11;18.70;;;12.80;;
76807;SDS011;65758;45.458;11.062;2023-11-19T07:39:38;13.10;;;9.60;;
76807;SDS011;65758;45.458;11.062;2023-11-19T07:42:08;23.40;;;16.70;;
76807;SDS011;65758;45.458;11.062;2023-11-19T07:44:36;16.50;;;13.70;;
76807;SDS011;65758;45.458;11.062;2023-11-19T07:47:03;12.80;;;10.20;;
76807;SDS011;65758;45.458;11.062;2023-11-19T07:49:30;10.00;;;7.70;;
76807;SDS011;65758;45.458;11.062;2023-11-19T07:51:58;8.80;;;7.10;;
76807;SDS011;65758;45.458;11.062;2023-11-19T07:54:25;10.70;;;8.40;;
76807;SDS011;65758;45.458;11.062;2023-11-19T07:56:52;17.60;;;13.60;;
76807;SDS011;65758;45.458;11.062;2023-11-19T07:59:19;17.80;;;12.70;;
76807;SDS011;65758;45.458;11.062;2023-11-19T08:01:46;12.30;;;8.60;;
76807;SDS011;65758;45.458;11.062;2023-11-19T08:04:14;10.20;;;8.10;;
76807;SDS011;65758;45.458;11.062;2023-11-19T08:06:41;9.80;;;7.80;;
76807;SDS011;65758;45.458;11.062;2023-11-19T08:09:08;9.90;;;7.90;;
76807;SDS011;65758;45.458;11.062;2023-11-19T08:11:43;10.20;;;8.30;;
76807;SDS011;65758;45.458;11.062;2023-11-19T08:14:10;14.50;;;8.90;;
76807;SDS011;65758;45.458;11.062;2023-11-19T08:16:39;12.10;;;8.20;;
76807;SDS011;65758;45.458;11.062;2023-11-19T08:19:06;11.70;;;7.80;;
76807;SDS011;65758;45.458;11.062;2023-11-19T08:21:35;12.90;;;7.50;;
76807;SDS011;65758;45.458;11.062;2023-11-19T08:24:01;8.60;;;7.00;;
76807;SDS011;65758;45.458;11.062;2023-11-19T08:26:28;8.50;;;7.00;;
76807;SDS011;65758;45.458;11.062;2023-11-19T08:28:55;11.80;;;7.70;;
76807;SDS011;65758;45.458;11.062;2023-11-19T08:31:24;10.20;;;7.90;;
76807;SDS011;65758;45.458;11.062;2023-11-19T08:33:52;9.50;;;7.90;;
76807;SDS011;65758;45.458;11.062;2023-11-19T08:36:18;12.60;;;8.70;;
76807;SDS011;65758;45.458;11.062;2023-11-19T08:38:46;11.90;;;8.80;;
76807;SDS011;65758;45.458;11.062;2023-11-19T08:41:15;12.60;;;8.50;;
76807;SDS011;65758;45.458;11.062;2023-11-19T08:43:44;14.00;;;9.30;;
76807;SDS011;65758;45.458;11.062;2023-11-19T08:46:12;10.70;;;8.50;;
76807;SDS011;65758;45.458;11.062;2023-11-19T08:48:39;12.80;;;8.30;;
76807;SDS011;65758;45.458;11.062;2023-11-19T08:51:06;12.60;;;9.50;;
76807;SDS011;65758;45.458;11.062;2023-11-19T08:53:33;12.70;;;8.90;;
76807;SDS011;65758;45.458;11.062;2023-11-19T08:56:01;11.30;;;9.20;;
76807;SDS011;65758;45.458;11.062;2023-11-19T08:58:30;12.60;;;8.30;;
76807;SDS011;65758;45.458;11.062;2023-11-19T09:00:57;11.50;;;8.30;;
76807;SDS011;65758;45.458;11.062;2023-11-19T09:03:25;11.80;;;8.30;;
76807;SDS011;65758;45.458;11.062;2023-11-19T09:05:57;10.20;;;7.80;;
76807;SDS011;65758;45.458;11.062;2023-11-19T09:10:50;12.90;;;8.60;;
76807;SDS011;65758;45.458;11.062;2023-11-19T09:13:17;11.90;;;8.50;;
76807;SDS011;65758;45.458;11.062;2023-11-19T09:15:45;13.50;;;9.80;;
76807;SDS011;65758;45.458;11.062;2023-11-19T09:18:11;10.80;;;8.90;;
76807;SDS011;65758;45.458;11.062;2023-11-19T09:20:39;11.50;;;8.70;;
76807;SDS011;65758;45.458;11.062;2023-11-19T09:23:06;13.00;;;9.20;;
76807;SDS011;65758;45.458;11.062;2023-11-19T09:25:33;14.70;;;10.20;;
76807;SDS011;65758;45.458;11.062;2023-11-19T09:28:03;17.40;;;10.30;;
76807;SDS011;65758;45.458;11.062;2023-11-19T09:30:30;11.90;;;8.90;;
76807;SDS011;65758;45.458;11.062;2023-11-19T09:33:00;15.10;;;10.70;;
76807;SDS011;65758;45.458;11.062;2023-11-19T09:35:27;15.50;;;9.90;;
76807;SDS011;65758;45.458;11.062;2023-11-19T09:37:54;15.50;;;10.20;;
76807;SDS011;65758;45.458;11.062;2023-11-19T09:40:21;17.20;;;11.00;;
76807;SDS011;65758;45.458;11.062;2023-11-19T09:42:48;16.00;;;10.40;;
76807;SDS011;65758;45.458;11.062;2023-11-19T09:45:15;13.30;;;9.80;;
76807;SDS011;65758;45.458;11.062;2023-11-19T09:47:45;14.00;;;9.80;;
76807;SDS011;65758;45.458;11.062;2023-11-19T09:50:14;13.00;;;10.20;;
76807;SDS011;65758;45.458;11.062;2023-11-19T09:52:44;14.70;;;10.70;;
76807;SDS011;65758;45.458;11.062;2023-11-19T09:55:11;16.50;;;10.60;;
76807;SDS011;65758;45.458;11.062;2023-11-19T09:57:39;15.30;;;11.30;;
76807;SDS011;65758;45.458;11.062;2023-11-19T10:00:07;15.00;;;10.60;;
76807;SDS011;65758;45.458;11.062;2023-11-19T10:02:37;15.30;;;10.50;;
76807;SDS011;65758;45.458;11.062;2023-11-19T10:05:05;14.10;;;10.80;;
76807;SDS011;65758;45.458;11.062;2023-11-19T10:07:34;14.80;;;10.30;;
76807;SDS011;65758;45.458;11.062;2023-11-19T10:10:01;14.40;;;11.00;;
76807;SDS011;65758;45.458;11.062;2023-11-19T10:12:32;17.70;;;11.30;;
76807;SDS011;65758;45.458;11.062;2023-11-19T10:14:59;15.30;;;12.30;;
76807;SDS011;65758;45.458;11.062;2023-11-19T10:17:32;15.30;;;11.10;;
76807;SDS011;65758;45.458;11.062;2023-11-19T10:20:00;14.60;;;10.80;;
76807;SDS011;65758;45.458;11.062;2023-11-19T10:22:27;15.90;;;11.10;;
76807;SDS011;65758;45.458;11.062;2023-11-19T10:24:54;19.30;;;12.00;;
76807;SDS011;65758;45.458;11.062;2023-11-19T10:27:25;14.80;;;11.30;;
76807;SDS011;65758;45.458;11.062;2023-11-19T10:29:52;16.20;;;11.70;;
76807;SDS011;65758;45.458;11.062;2023-11-19T10:32:19;17.90;;;11.30;;
76807;SDS011;65758;45.458;11.062;2023-11-19T10:34:58;16.90;;;11.90;;
76807;SDS011;65758;45.458;11.062;2023-11-19T10:37:32;15.70;;;12.30;;
76807;SDS011;65758;45.458;11.062;2023-11-19T10:40:02;14.20;;;11.40;;
76807;SDS011;65758;45.458;11.062;2023-11-19T10:42:31;17.70;;;12.40;;
76807;SDS011;65758;45.458;11.062;2023-11-19T10:44:58;15.80;;;9.80;;
76807;SDS011;65758;45.458;11.062;2023-11-19T10:47:25;16.70;;;11.60;;
76807;SDS011;65758;45.458;11.062;2023-11-19T10:49:55;19.00;;;12.10;;
76807;SDS011;65758;45.458;11.062;2023-11-19T10:52:22;18.50;;;12.30;;
76807;SDS011;65758;45.458;11.062;2023-11-19T10:54:54;17.00;;;10.90;;
76807;SDS011;65758;45.458;11.062;2023-11-19T10:57:28;16.10;;;10.30;;
76807;SDS011;65758;45.458;11.062;2023-11-19T10:59:59;18.50;;;11.00;;
76807;SDS011;65758;45.458;11.062;2023-11-19T11:02:29;17.10;;;11.60;;
76807;SDS011;65758;45.458;11.062;2023-11-19T11:05:02;15.80;;;11.80;;
76807;SDS011;65758;45.458;11.062;2023-11-19T11:07:31;16.00;;;10.80;;
76807;SDS011;65758;45.458;11.062;2023-11-19T11:10:07;17.90;;;12.70;;
76807;SDS011;65758;45.458;11.062;2023-11-19T11:12:36;13.80;;;10.00;;
76807;SDS011;65758;45.458;11.062;2023-11-19T11:17:39;16.80;;;11.60;;
76807;SDS011;65758;45.458;11.062;2023-11-19T11:20:09;14.50;;;10.60;;
76807;SDS011;65758;45.458;11.062;2023-11-19T11:22:41;17.50;;;12.00;;
76807;SDS011;65758;45.458;11.062;2023-11-19T11:28:00;18.40;;;12.70;;
76807;SDS011;65758;45.458;11.062;2023-11-19T11:30:39;14.40;;;12.00;;
76807;SDS011;65758;45.458;11.062;2023-11-19T11:33:24;13.70;;;11.00;;
76807;SDS011;65758;45.458;11.062;2023-11-19T11:38:39;17.60;;;11.30;;
76807;SDS011;65758;45.458;11.062;2023-11-19T11:41:21;15.30;;;11.00;;
76807;SDS011;65758;45.458;11.062;2023-11-19T11:43:54;16.80;;;12.10;;
76807;SDS011;65758;45.458;11.062;2023-11-19T11:59:47;18.50;;;11.90;;
76807;SDS011;65758;45.458;11.062;2023-11-19T12:02:15;18.00;;;12.60;;
76807;SDS011;65758;45.458;11.062;2023-11-19T12:04:51;18.90;;;13.90;;
76807;SDS011;65758;45.458;11.062;2023-11-19T12:07:23;15.60;;;11.90;;
76807;SDS011;65758;45.458;11.062;2023-11-19T12:09:52;18.40;;;13.70;;
76807;SDS011;65758;45.458;11.062;2023-11-19T12:12:33;18.50;;;12.00;;
76807;SDS011;65758;45.458;11.062;2023-11-19T12:15:02;15.40;;;11.10;;
76807;SDS011;65758;45.458;11.062;2023-11-19T12:20:00;15.70;;;12.40;;
76807;SDS011;65758;45.458;11.062;2023-11-19T12:22:28;15.30;;;11.60;;
76807;SDS011;65758;45.458;11.062;2023-11-19T12:24:55;14.30;;;11.20;;
76807;SDS011;65758;45.458;11.062;2023-11-19T12:27:22;14.50;;;11.60;;
76807;SDS011;65758;45.458;11.062;2023-11-19T12:29:49;14.10;;;11.60;;
76807;SDS011;65758;45.458;11.062;2023-11-19T12:32:17;13.70;;;11.50;;
76807;SDS011;65758;45.458;11.062;2023-11-19T12:34:44;16.50;;;12.30;;
76807;SDS011;65758;45.458;11.062;2023-11-19T12:37:11;14.60;;;12.30;;
76807;SDS011;65758;45.458;11.062;2023-11-19T12:39:38;15.90;;;12.50;;
76807;SDS011;65758;45.458;11.062;2023-11-19T12:42:07;13.70;;;11.20;;
76807;SDS011;65758;45.458;11.062;2023-11-19T12:44:33;14.80;;;12.30;;
76807;SDS011;65758;45.458;11.062;2023-11-19T12:47:01;16.20;;;12.10;;
76807;SDS011;65758;45.458;11.062;2023-11-19T12:49:29;14.30;;;11.50;;
76807;SDS011;65758;45.458;11.062;2023-11-19T12:51:57;16.20;;;12.60;;
76807;SDS011;65758;45.458;11.062;2023-11-19T12:54:34;17.80;;;12.90;;
76807;SDS011;65758;45.458;11.062;2023-11-19T12:57:02;16.40;;;13.10;;
76807;SDS011;65758;45.458;11.062;2023-11-19T12:59:31;14.70;;;11.40;;
76807;SDS011;65758;45.458;11.062;2023-11-19T13:01:58;15.70;;;12.20;;
76807;SDS011;65758;45.458;11.062;2023-11-19T13:04:29;16.00;;;13.10;;
76807;SDS011;65758;45.458;11.062;2023-11-19T13:06:59;17.60;;;13.50;;
76807;SDS011;65758;45.458;11.062;2023-11-19T13:09:31;18.10;;;13.40;;
76807;SDS011;65758;45.458;11.062;2023-11-19T13:11:58;15.80;;;11.90;;
76807;SDS011;65758;45.458;11.062;2023-11-19T13:14:35;16.60;;;12.70;;
76807;SDS011;65758;45.458;11.062;2023-11-19T13:17:12;15.40;;;12.50;;
76807;SDS011;65758;45.458;11.062;2023-11-19T13:19:40;17.40;;;12.70;;
76807;SDS011;65758;45.458;11.062;2023-11-19T13:22:07;15.40;;;12.10;;
76807;SDS011;65758;45.458;11.062;2023-11-19T13:24:35;16.60;;;11.50;;
76807;SDS011;65758;45.458;11.062;2023-11-19T13:27:01;18.10;;;12.50;;
76807;SDS011;65758;45.458;11.062;2023-11-19T13:29:29;13.60;;;11.60;;
76807;SDS011;65758;45.458;11.062;2023-11-19T13:31:58;16.30;;;11.40;;
76807;SDS011;65758;45.458;11.062;2023-11-19T13:34:25;14.70;;;11.70;;
76807;SDS011;65758;45.458;11.062;2023-11-19T13:36:51;18.30;;;12.70;;
76807;SDS011;65758;45.458;11.062;2023-11-19T13:39:18;14.50;;;12.60;;
76807;SDS011;65758;45.458;11.062;2023-11-19T13:41:49;15.00;;;12.40;;
76807;SDS011;65758;45.458;11.062;2023-11-19T13:44:16;16.00;;;13.10;;
76807;SDS011;65758;45.458;11.062;2023-11-19T13:46:45;17.80;;;12.90;;
76807;SDS011;65758;45.458;11.062;2023-11-19T13:49:12;16.30;;;13.30;;
76807;SDS011;65758;45.458;11.062;2023-11-19T13:51:39;14.70;;;11.90;;
76807;SDS011;65758;45.458;11.062;2023-11-19T13:54:06;16.00;;;12.80;;
76807;SDS011;65758;45.458;11.062;2023-11-19T13:56:33;17.50;;;15.20;;
76807;SDS011;65758;45.458;11.062;2023-11-19T13:59:00;16.20;;;13.80;;
76807;SDS011;65758;45.458;11.062;2023-11-19T14:01:27;15.10;;;12.10;;
76807;SDS011;65758;45.458;11.062;2023-11-19T14:03:54;13.90;;;12.50;;
76807;SDS011;65758;45.458;11.062;2023-11-19T14:06:21;15.80;;;13.20;;
76807;SDS011;65758;45.458;11.062;2023-11-19T14:08:48;15.60;;;13.00;;
76807;SDS011;65758;45.458;11.062;2023-11-19T14:11:15;15.00;;;12.40;;
76807;SDS011;65758;45.458;11.062;2023-11-19T14:13:42;15.60;;;11.90;;
76807;SDS011;65758;45.458;11.062;2023-11-19T14:16:09;17.00;;;13.30;;
76807;SDS011;65758;45.458;11.062;2023-11-19T14:18:36;19.30;;;13.60;;
76807;SDS011;65758;45.458;11.062;2023-11-19T14:21:03;16.50;;;14.20;;
76807;SDS011;65758;45.458;11.062;2023-11-19T14:23:30;16.60;;;12.20;;
76807;SDS011;65758;45.458;11.062;2023-11-19T14:25:57;17.90;;;14.10;;
76807;SDS011;65758;45.458;11.062;2023-11-19T14:28:23;16.40;;;13.10;;
76807;SDS011;65758;45.458;11.062;2023-11-19T14:30:52;19.40;;;15.50;;
76807;SDS011;65758;45.458;11.062;2023-11-19T14:33:23;18.70;;;14.10;;
76807;SDS011;65758;45.458;11.062;2023-11-19T14:35:50;17.00;;;13.90;;
76807;SDS011;65758;45.458;11.062;2023-11-19T14:38:18;16.50;;;13.20;;
76807;SDS011;65758;45.458;11.062;2023-11-19T14:40:45;21.00;;;14.40;;
76807;SDS011;65758;45.458;11.062;2023-11-19T14:43:12;18.10;;;14.20;;
76807;SDS011;65758;45.458;11.062;2023-11-19T14:45:40;16.60;;;13.60;;
76807;SDS011;65758;45.458;11.062;2023-11-19T14:48:15;16.10;;;13.10;;
76807;SDS011;65758;45.458;11.062;2023-11-19T14:50:44;16.90;;;14.20;;
76807;SDS011;65758;45.458;11.062;2023-11-19T14:53:11;16.00;;;13.30;;
76807;SDS011;65758;45.458;11.062;2023-11-19T14:55:38;18.20;;;13.90;;
76807;SDS011;65758;45.458;11.062;2023-11-19T14:58:05;19.00;;;14.70;;
76807;SDS011;65758;45.458;11.062;2023-11-19T15:00:37;17.40;;;14.70;;
76807;SDS011;65758;45.458;11.062;2023-11-19T15:03:04;18.40;;;14.40;;